Time;durP1;ratioP1;P1;durP2;ratioP2;P2;SDS_P1;SDS_P2;PMS_P1;PMS_P2;Temp;Humidity;BMP_temperature;BMP_pressure;BME280_temperature;BME280_humidity;BME280_pressure;Samples;Min_cycle;Max_cycle;Signal;HPM_P1;HPM_P2
2023/11/19 00:01:24;;;;;;;0.95;0.88;;;;;;;-144.05;93.10;57014.50;5036291;28;20037;-85
2023/11/19 00:03:50;;;;;;;1.98;0.68;;;;;;;-144.05;93.33;57010.25;5032726;28;20505;-84
2023/11/19 00:06:16;;;;;;;1.55;0.80;;;;;;;-144.05;93.55;57018.75;5031396;28;20025;-84
2023/11/19 00:08:45;;;;;;;1.08;0.70;;;;;;;-144.05;93.61;57014.50;5032573;28;20053;-83
2023/11/19 00:11:15;;;;;;;0.60;0.60;;;;;;;-144.05;93.77;57016.63;5031071;28;20048;-80
2023/11/19 00:13:41;;;;;;;0.80;0.60;;;;;;;-144.05;93.16;57046.38;5029547;28;20025;-80
2023/11/19 00:16:09;;;;;;;1.40;0.77;;;10.80;99.90;;;-144.05;92.83;57025.13;5028854;28;20039;-80
2023/11/19 00:18:36;;;;;;;2.72;0.77;;;;;;;-144.05;92.68;57008.13;5029562;28;20030;-82
2023/11/19 00:21:02;;;;;;;1.25;0.75;;;;;;;-144.05;92.30;57008.13;5029511;28;20034;-81
2023/11/19 00:23:29;;;;;;;1.15;0.85;;;;;;;-144.05;92.41;56991.13;5031306;28;20040;-80
2023/11/19 00:25:55;;;;;;;0.50;0.50;;;;;;;-144.05;91.89;56980.53;5029444;28;20025;-82
2023/11/19 00:28:21;;;;;;;1.30;1.13;;;;;;;-144.05;91.91;56997.50;5031398;28;20040;-81
2023/11/19 00:30:47;;;;;;;1.98;0.95;;;;;;;-144.05;92.35;57006.00;5029246;28;20040;-81
2023/11/19 00:33:14;;;;;;;1.40;1.30;;;;;;;-144.05;92.35;57029.38;5030281;28;20030;-82
2023/11/19 00:35:40;;;;;;;3.85;1.20;;;;;;;-144.05;92.23;57006.00;5029864;28;20055;-84
2023/11/19 00:38:06;;;;;;;2.08;0.80;;;;;;;-144.05;91.86;57003.88;5027634;28;20025;-83
2023/11/19 00:40:33;;;;;;;1.45;1.15;;;;;;;-144.05;92.39;57018.75;5031312;28;20037;-82
2023/11/19 00:42:59;;;;;;;1.95;1.30;;;;;;;-144.05;91.91;57008.13;5046369;28;20398;-83
2023/11/19 00:45:25;;;;;;;2.00;1.50;;;;;;;-144.05;92.62;57008.13;5032413;28;20056;-85
2023/11/19 00:47:51;;;;;;;5.45;1.73;;;;;;;-144.05;92.80;57012.38;5036328;28;20021;-77
2023/11/19 00:50:18;;;;;;;3.17;1.45;;;;;;;-144.05;92.31;57008.13;5050049;28;20394;-84
2023/11/19 00:52:44;;;;;;;4.82;1.70;;;;;;;-144.05;92.80;56993.25;5049016;28;20017;-82
2023/11/19 00:55:11;;;;;;;2.03;1.60;;;;;;;-144.05;92.56;57027.25;5048335;28;20041;-84
2023/11/19 00:57:38;;;;;;;2.80;1.80;;;;;;;-144.05;92.68;56999.63;5030710;28;20052;-81
2023/11/19 01:00:18;;;;;;;4.53;1.90;;;12.20;99.90;;;-144.05;93.11;56959.28;5028103;28;20030;-80
2023/11/19 01:02:49;;;;;;;2.78;1.98;;;12.30;99.90;;;-144.05;93.46;56986.91;5021728;28;20029;-82
2023/11/19 01:05:16;;;;;;;2.15;1.80;;;;;;;-144.05;93.14;56982.66;5022383;28;20025;-82
2023/11/19 01:07:43;;;;;;;3.10;1.90;;;;;;;-144.05;93.42;57006.00;5028754;28;20025;-82
2023/11/19 01:10:09;;;;;;;4.40;1.80;;;;;;;-144.05;93.49;56993.25;5026776;28;20030;-82
2023/11/19 01:12:36;;;;;;;3.78;2.35;;;;;;;-144.05;93.96;56995.38;5027472;28;20030;-79
2023/11/19 01:15:02;;;;;;;6.30;2.20;;;;;;;-144.05;93.63;57008.13;5025932;28;20403;-81
2023/11/19 01:17:31;;;;;;;3.80;2.47;;;;;;;-144.05;93.66;57008.13;5027395;28;20017;-80
2023/11/19 01:19:57;;;;;;;2.45;2.05;;;;;;;-144.05;93.57;57016.63;5025803;28;20128;-80
2023/11/19 01:22:24;;;;;;;3.25;1.80;;;;;;;-144.05;93.04;57012.38;5028778;28;20097;-81
2023/11/19 01:24:51;;;;;;;5.32;2.00;;;;;;;-144.05;93.26;56980.53;5029084;28;20453;-81
2023/11/19 01:27:18;;;;;;;4.10;2.53;;;;;;;-144.05;93.90;57010.25;5027093;28;20071;-81
2023/11/19 01:29:44;;;;;;;2.10;1.80;;;;;;;-144.05;93.27;57010.25;5027805;28;20071;-80
2023/11/19 01:32:12;;;;;;;4.00;2.30;;;;;;;-144.05;93.33;56986.91;5027330;28;20057;-81
2023/11/19 01:34:38;;;;;;;2.20;1.83;;;;;;;-144.05;93.22;57023.00;5027706;28;20025;-83
2023/11/19 01:37:04;;;;;;;2.05;1.70;;;;;;;-144.05;93.00;57025.13;5025172;28;20406;-81
2023/11/19 01:39:31;;;;;;;4.15;1.90;;;;;;;-144.05;93.52;57006.00;5028115;28;20108;-82
2023/11/19 01:41:57;;;;;;;3.03;2.08;;;;;;;-144.05;94.28;57014.50;5025173;28;20644;-81
2023/11/19 01:44:23;;;;;;;2.08;1.75;;;;;;;-144.05;94.22;57029.38;5026760;28;20047;-81
2023/11/19 01:46:49;;;;;;;1.50;1.40;;;;;;;-144.05;94.52;56980.53;5025246;28;20093;-82
2023/11/19 01:49:18;;;;;;;2.00;1.60;;;13.30;99.90;;;-144.05;94.36;56995.38;5027668;28;20056;-81
2023/11/19 01:51:46;;;;;;;1.42;1.30;;;;;;;-144.05;94.38;57001.75;5042567;28;20040;-80
2023/11/19 01:54:15;;;;;;;1.40;1.30;;;;;;;-144.05;94.11;56982.66;5027142;28;20087;-83
2023/11/19 01:56:43;;;;;;;3.95;1.30;;;;;;;-144.05;94.39;57014.50;5027411;28;20099;-82
2023/11/19 01:59:13;;;;;;;2.15;1.02;;;13.00;99.90;;;-144.05;94.34;56967.78;5025309;28;20025;-81
2023/11/19 02:01:40;;;;;;;1.30;1.00;;;;;;;-144.05;94.82;56995.38;5027571;28;20033;-82
2023/11/19 02:04:08;;;;;;;1.52;1.00;;;12.30;99.90;;;-144.05;94.77;57006.00;5025967;28;20391;-81
2023/11/19 02:06:42;;;;;;;2.50;1.20;;;12.10;99.90;;;-144.05;95.37;56997.50;5027476;28;20026;-82
2023/11/19 02:09:09;;;;;;;3.00;1.20;;;;;;;-144.05;94.89;57010.25;5026235;28;20072;-81
2023/11/19 02:11:35;;;;;;;1.63;1.17;;;;;;;-144.05;94.40;57010.25;5027062;28;20406;-80
2023/11/19 02:14:04;;;;;;;1.20;1.10;;;;;;;-144.05;94.51;57006.00;5025439;28;20045;-81
2023/11/19 02:16:30;;;;;;;3.15;1.10;;;;;;;-144.05;94.23;57003.88;5026037;28;20371;-81
2023/11/19 02:18:56;;;;;;;1.67;1.02;;;;;;;-144.05;94.24;57010.25;5025912;28;20490;-81
2023/11/19 02:21:23;;;;;;;2.45;1.27;;;;;;;-144.05;94.28;56989.00;5027146;28;20114;-81
2023/11/19 02:23:49;;;;;;;2.28;1.33;;;;;;;-144.05;93.96;57008.13;5026005;28;20108;-81
2023/11/19 02:26:28;;;;;;;1.88;1.67;;;;;;;-144.05;94.64;57006.00;5026627;28;20101;-81
2023/11/19 02:28:55;;;;;;;3.22;1.40;;;;;;;-144.05;94.27;56997.50;5023830;28;20057;-80
2023/11/19 02:31:22;;;;;;;2.83;1.50;;;;;;;-144.05;93.61;56991.13;5027028;28;20071;-82
2023/11/19 02:33:49;;;;;;;2.63;1.80;;;;;;;-144.05;93.78;57027.25;5025710;28;20467;-81
2023/11/19 02:36:16;;;;;;;4.57;1.75;;;;;;;-144.05;93.29;57012.38;5026181;28;20029;-82
2023/11/19 02:38:42;;;;;;;7.38;2.28;;;;;;;-144.05;93.52;57003.88;5027838;28;20056;-80
2023/11/19 02:41:09;;;;;;;4.88;1.88;;;13.90;99.90;;;-144.05;93.07;57023.00;5025263;28;20034;-81
2023/11/19 02:43:37;;;;;;;3.80;1.48;;;;;;;-144.05;93.43;57006.00;5027909;28;20049;-83
2023/11/19 02:46:08;;;;;;;3.53;1.35;;;12.60;99.90;;;-144.05;92.83;57001.75;5026028;28;20030;-83
2023/11/19 02:48:35;;;;;;;5.78;1.70;;;;;;;-144.05;93.10;56984.78;5029655;28;20022;-81
2023/11/19 02:51:03;;;;;;;5.13;1.85;;;;;;;-144.05;93.29;56991.13;5028574;28;20593;-81
2023/11/19 02:53:30;;;;;;;3.97;1.60;;;;;;;-144.05;93.40;57029.38;5030235;28;20043;-80
2023/11/19 02:56:09;;;;;;;7.55;1.77;;;;;;;-144.05;93.25;57001.75;5028380;28;20030;-83
2023/11/19 02:58:35;;;;;;;9.48;1.67;;;;;;;-144.05;92.99;56997.50;5028954;28;20078;-82
2023/11/19 03:01:12;;;;;;;7.15;1.70;;;;;;;-144.05;92.77;57012.38;5026959;28;20033;-82
2023/11/19 03:03:40;;;;;;;3.80;1.55;;;;;;;-144.05;93.32;57006.00;5030370;28;20033;-82
2023/11/19 03:06:07;;;;;;;7.93;1.77;;;;;;;-144.05;92.46;57003.88;5023131;28;20568;-82
2023/11/19 03:08:35;;;;;;;5.13;1.83;;;12.70;99.90;;;-144.05;91.91;56976.28;5030100;28;20036;-80
2023/11/19 03:11:02;;;;;;;5.88;1.45;;;;;;;-144.05;92.23;56991.13;5027713;28;20033;-81
2023/11/19 03:13:28;;;;;;;9.43;2.05;;;;;;;-144.05;92.61;56999.63;5029777;28;20030;-81
2023/11/19 03:15:54;;;;;;;8.45;1.55;;;;;;;-144.05;92.13;57008.13;5027893;28;20025;-82
2023/11/19 03:18:21;;;;;;;6.13;2.05;;;;;;;-144.05;91.88;57001.75;5023427;28;20025;-82
2023/11/19 03:20:47;;;;;;;13.30;2.08;;;13.00;99.90;;;-144.05;91.82;56982.66;5028066;28;20056;-79
2023/11/19 03:23:14;;;;;;;10.52;2.30;;;;;;;-144.05;91.53;56986.91;5029390;28;20138;-81
2023/11/19 03:25:40;;;;;;;13.65;2.03;;;;;;;-144.05;91.27;56999.63;5028070;28;20021;-81
2023/11/19 03:28:06;;;;;;;12.55;2.25;;;;;;;-144.05;91.69;56993.25;5023853;28;20438;-81
2023/11/19 03:30:32;;;;;;;8.70;1.58;;;;;;;-144.05;92.21;56991.13;5027872;28;20056;-80
2023/11/19 03:33:00;;;;;;;8.13;1.98;;;;;;;-144.05;92.21;57001.75;5025313;28;20017;-80
2023/11/19 03:35:27;;;;;;;10.30;2.13;;;;;;;-144.05;91.88;57025.13;5029189;28;20083;-81
2023/11/19 03:37:54;;;;;;;10.95;2.53;;;;;;;-144.05;92.31;56993.25;5025599;28;20028;-81
2023/11/19 03:40:20;;;;;;;14.43;3.75;;;;;;;-144.05;92.12;57016.63;5029414;28;20117;-80
2023/11/19 03:42:47;;;;;;;8.70;2.10;;;12.80;99.90;;;-144.05;91.57;56995.38;5027022;28;20128;-80
2023/11/19 03:45:14;;;;;;;8.63;2.13;;;;;;;-144.05;92.33;57023.00;5026645;28;20136;-82
2023/11/19 03:47:40;;;;;;;10.13;2.05;;;;;;;-144.05;92.35;57006.00;5027528;28;20448;-80
2023/11/19 03:50:08;;;;;;;13.02;3.00;;;13.00;99.90;;;-144.05;92.82;56965.66;5037488;28;20088;-81
2023/11/19 03:52:35;;;;;;;9.30;2.28;;;;;;;-144.05;93.24;57016.63;5027537;28;20025;-86
2023/11/19 03:55:03;;;;;;;19.15;2.75;;;;;;;-144.05;93.75;56989.00;5026420;28;20057;-82
2023/11/19 03:57:29;;;;;;;14.27;2.78;;;;;;;-144.05;92.81;57010.25;5028812;28;20017;-82
2023/11/19 03:59:55;;;;;;;15.63;2.42;;;;;;;-144.05;92.53;57014.50;5027186;28;20071;-83
2023/11/19 04:02:22;;;;;;;9.82;2.55;;;;;;;-144.05;91.54;57012.38;5027694;28;20049;-82
2023/11/19 04:04:48;;;;;;;19.02;3.20;;;;;;;-144.05;91.93;56989.00;5027760;28;20018;-83
2023/11/19 04:07:15;;;;;;;14.70;3.00;;;;;;;-144.05;91.21;56991.13;5025960;28;20045;-82
2023/11/19 04:09:41;;;;;;;16.90;4.03;;;;;;;-144.05;90.61;57014.50;5029380;28;20101;-82
2023/11/19 04:12:08;;;;;;;13.00;3.05;;;;;;;-144.05;91.21;57023.00;5027587;28;20030;-82
2023/11/19 04:14:36;;;;;;;19.02;3.10;;;;;;;-144.05;91.18;57016.63;5029447;28;20022;-83
2023/11/19 04:17:02;;;;;;;13.07;2.45;;;;;;;-144.05;90.31;57025.13;5026728;28;20029;-82
2023/11/19 04:19:28;;;;;;;13.32;2.70;;;;;;;-144.05;90.42;57003.88;5030273;28;20038;-83
2023/11/19 04:21:54;;;;;;;13.77;3.50;;;;;;;-144.05;89.67;56991.13;5026165;28;20029;-83
2023/11/19 04:24:21;;;;;;;18.63;4.05;;;;;;;-144.05;90.41;57048.50;5027136;28;20100;-81
2023/11/19 04:26:47;;;;;;;17.88;3.40;;;;;;;-144.05;89.92;57008.13;5026505;28;20032;-82
2023/11/19 04:29:17;;;;;;;13.90;3.20;;;;;;;-144.05;89.44;56995.38;5028409;28;20029;-83
2023/11/19 04:31:46;;;;;;;16.95;2.97;;;12.40;99.90;;;-144.05;89.01;57006.00;5025631;28;20026;-81
2023/11/19 04:34:13;;;;;;;19.00;3.78;;;;;;;-144.05;88.29;57001.75;5026579;28;20076;-81
2023/11/19 04:36:39;;;;;;;15.55;3.03;;;;;;;-144.05;88.56;57035.75;5028285;28;20552;-81
2023/11/19 04:39:15;;;;;;;10.45;2.97;;;12.60;99.90;;;-144.05;88.18;56982.66;5025035;28;20030;-82
2023/11/19 04:41:54;;;;;;;;;;;12.20;99.90;;;-144.05;88.22;56993.25;5025979;28;20087;-81
2023/11/19 04:44:21;;;;;;;19.35;2.92;;;;;;;-144.05;89.07;57006.00;5026182;28;19917;-81
2023/11/19 04:46:47;;;;;;;18.52;2.88;;;;;;;-144.05;89.42;57016.63;5024638;28;20017;-79
2023/11/19 04:49:14;;;;;;;16.48;3.28;;;12.40;99.90;;;-144.05;89.40;57018.75;5028081;28;20052;-83
2023/11/19 04:51:48;;;;;;;23.38;3.33;;;;;;;-144.05;89.45;57010.25;5026732;28;20083;-80
2023/11/19 04:54:14;;;;;;;21.05;3.08;;;;;;;-144.05;89.13;57003.88;5022401;28;20026;-81
2023/11/19 04:56:45;;;;;;;12.45;2.90;;;;;;;-144.05;88.74;56984.78;5026463;28;20108;-82
2023/11/19 04:59:12;;;;;;;18.30;3.42;;;;;;;-144.05;88.04;56989.00;5021629;28;20031;-81
2023/11/19 05:01:38;;;;;;;19.15;3.35;;;;;;;-144.05;88.45;57014.50;5025058;28;20542;-81
2023/11/19 05:04:04;;;;;;;17.98;3.85;;;;;;;-144.05;87.47;56991.13;5023508;28;20127;-81
2023/11/19 05:06:31;;;;;;;31.33;3.97;;;;;;;-144.05;87.82;57014.50;5024741;28;20025;-81
2023/11/19 05:09:07;;;;;;;23.75;3.45;;;12.00;99.90;;;-144.05;86.71;56972.03;5026467;28;20065;-79
2023/11/19 05:11:34;;;;;;;17.67;2.78;;;;;;;-144.05;85.21;56993.25;5019593;28;20035;-81
2023/11/19 05:14:03;;;;;;;24.08;3.22;;;;;;;-144.05;85.44;57003.88;5022311;28;20036;-82
2023/11/19 05:16:30;;;;;;;21.83;3.92;;;;;;;-144.05;85.52;56989.00;5027106;28;20020;-82
2023/11/19 05:18:56;;;;;;;17.50;3.28;;;;;;;-144.05;86.04;57025.13;5024357;28;20033;-81
2023/11/19 05:21:23;;;;;;;29.98;4.68;;;;;;;-144.05;86.69;57008.13;5026150;28;20037;-80
2023/11/19 05:23:49;;;;;;;22.05;4.13;;;;;;;-144.05;87.07;57006.00;5024165;28;20025;-81
2023/11/19 05:26:23;;;;;;;24.55;4.10;;;12.00;99.90;;;-144.05;87.15;57025.13;5023342;28;20030;-81
2023/11/19 05:28:50;;;;;;;17.75;4.03;;;;;;;-144.05;86.08;56997.50;5039967;28;20036;-81
2023/11/19 05:31:18;;;;;;;19.25;4.13;;;12.20;99.90;;;-144.05;85.79;56993.25;5023907;28;20033;-81
2023/11/19 05:33:44;;;;;;;20.35;3.60;;;;;;;-144.05;85.70;56995.38;5023755;28;20401;-82
2023/11/19 05:36:12;;;;;;;22.33;4.30;;;12.70;99.90;;;-144.05;85.21;56959.28;5023077;28;20053;-80
2023/11/19 05:38:39;;;;;;;20.42;4.22;;;;;;;-144.05;85.17;57014.50;5025534;28;20033;-79
2023/11/19 05:41:06;;;;;;;18.20;4.35;;;12.30;99.90;;;-144.05;84.92;56993.25;5022268;28;20111;-81
2023/11/19 05:43:33;;;;;;;22.05;4.25;;;12.80;99.90;;;-144.05;84.56;57006.00;5025426;28;20021;-82
2023/11/19 05:45:59;;;;;;;25.02;3.95;;;;;;;-144.05;84.53;57035.75;5022704;28;20039;-81
2023/11/19 05:48:27;;;;;;;23.33;4.13;;;12.50;99.90;;;-144.05;84.38;57012.38;5029668;28;20029;-81
2023/11/19 05:50:54;;;;;;;30.33;5.18;;;;;;;-144.05;83.67;57014.50;5022094;28;20087;-81
2023/11/19 05:53:21;;;;;;;27.25;4.47;;;;;;;-144.05;84.37;57016.63;5024605;28;20030;-82
2023/11/19 05:55:54;;;;;;;27.30;4.50;;;;;;;-144.05;84.82;57048.50;5023734;28;20021;-79
2023/11/19 05:58:28;;;;;;;21.52;5.25;;;;;;;-144.05;84.68;57014.50;5024295;28;20056;-82
2023/11/19 06:00:56;;;;;;;26.77;3.97;;;12.00;99.90;;;-144.05;84.13;56980.53;5022301;28;20521;-80
2023/11/19 06:03:23;;;;;;;21.80;4.25;;;;;;;-144.05;84.65;56993.25;5024542;28;20057;-82
2023/11/19 06:05:50;;;;;;;23.95;4.68;;;;;;;-144.05;84.53;57014.50;5024458;28;20391;-82
2023/11/19 06:08:16;;;;;;;19.98;3.78;;;12.50;99.90;;;-144.05;84.86;56995.38;5022568;28;20041;-83
2023/11/19 06:10:46;;;;;;;22.85;4.13;;;12.50;99.90;;;-144.05;84.79;57003.88;5023644;28;20491;-80
2023/11/19 06:13:14;;;;;;;18.73;4.30;;;;;;;-144.05;84.69;57014.50;5023508;28;20057;-82
2023/11/19 06:15:44;;;;;;;22.15;3.58;;;12.20;99.90;;;-144.05;83.89;56984.78;5029165;28;20040;-83
2023/11/19 06:18:14;;;;;;;23.35;4.00;;;;;;;-144.05;83.74;57025.13;5023090;28;20065;-84
2023/11/19 06:20:41;;;;;;;28.17;4.35;;;;;;;-144.05;82.89;56997.50;5025819;28;20022;-83
2023/11/19 06:23:07;;;;;;;15.80;3.30;;;;;;;-144.05;82.44;57008.13;5023283;28;20085;-82
2023/11/19 06:25:35;;;;;;;21.48;4.30;;;;;;;-144.05;82.19;56997.50;5029136;28;20059;-82
2023/11/19 06:28:01;;;;;;;17.08;3.35;;;;;;;-144.05;81.76;57020.88;5028769;28;20041;-84
2023/11/19 06:30:28;;;;;;;25.25;4.43;;;;;;;-144.05;81.72;56980.53;5031420;28;20115;-83
2023/11/19 06:32:55;;;;;;;23.67;3.83;;;;;;;-144.05;80.94;56997.50;5034025;28;20026;-81
2023/11/19 06:35:21;;;;;;;18.27;4.18;;;;;;;-144.05;81.72;57006.00;5044426;28;20022;-84
2023/11/19 06:37:48;;;;;;;24.88;4.13;;;;;;;-144.05;81.23;56993.25;5043948;28;20034;-84
2023/11/19 06:40:15;;;;;;;31.45;5.10;;;;;;;-144.05;81.19;57003.88;5043688;28;20033;-84
2023/11/19 06:42:42;;;;;;;22.45;3.92;;;;;;;-144.05;81.66;57012.38;5031618;28;20087;-80
2023/11/19 06:45:09;;;;;;;21.95;4.30;;;;;;;-144.05;81.36;57025.13;5033156;28;20021;-80
2023/11/19 06:47:35;;;;;;;23.35;4.35;;;;;;;-144.05;81.11;56986.91;5024777;28;20022;-81
2023/11/19 06:50:05;;;;;;;19.33;4.38;;;;;;;-144.05;82.11;56995.38;5023562;28;20030;-80
2023/11/19 06:52:31;;;;;;;21.38;5.45;;;;;;;-144.05;81.69;57001.75;5022774;28;20109;-80
2023/11/19 06:54:57;;;;;;;24.48;3.75;;;;;;;-144.05;81.14;57018.75;5023737;28;20021;-80
2023/11/19 06:57:24;;;;;;;22.23;5.03;;;;;;;-144.05;82.01;57006.00;5026391;28;20057;-82
2023/11/19 06:59:50;;;;;;;25.33;4.18;;;;;;;-144.05;82.66;57008.13;5024783;28;20021;-80
2023/11/19 07:02:16;;;;;;;21.48;4.25;;;;;;;-144.05;82.44;57033.63;5028498;28;20048;-81
2023/11/19 07:04:42;;;;;;;25.52;3.80;;;;;;;-144.05;82.40;57031.50;5025765;28;20018;-81
2023/11/19 07:07:09;;;;;;;22.38;3.83;;;;;;;-144.05;81.53;57025.13;5023997;28;20026;-80
2023/11/19 07:09:35;;;;;;;24.35;4.32;;;;;;;-144.05;80.24;56997.50;5025757;28;20504;-79
2023/11/19 07:12:04;;;;;;;27.77;4.25;;;;;;;-144.05;80.55;57003.88;5023700;28;20038;-81
2023/11/19 07:14:31;;;;;;;20.15;4.57;;;;;;;-144.05;80.93;57029.38;5026460;28;20036;-81
2023/11/19 07:16:57;;;;;;;24.13;3.67;;;;;;;-144.05;79.87;56976.28;5023400;28;20049;-81
2023/11/19 07:19:23;;;;;;;28.40;3.83;;;;;;;-144.05;79.42;56999.63;5026043;28;20495;-80
2023/11/19 07:21:49;;;;;;;22.77;3.50;;;;;;;-144.05;78.80;57006.00;5024291;28;20379;-79
2023/11/19 07:24:16;;;;;;;23.17;4.65;;;;;;;-144.05;79.12;56993.25;5023075;28;20040;-80
2023/11/19 07:26:47;;;;;;;25.30;3.58;;;7.80;99.90;;;-144.05;78.93;57014.50;5026221;28;20029;-82
2023/11/19 07:29:16;;;;;;;31.70;4.10;;;;;;;-144.05;79.25;57016.63;5030127;28;20026;-82
2023/11/19 07:31:44;;;;;;;22.48;3.90;;;;;;;-144.05;79.69;57023.00;5026437;28;20033;-79
2023/11/19 07:34:11;;;;;;;29.17;5.30;;;7.80;99.90;;;-144.05;79.62;56982.66;5025847;28;20032;-79
2023/11/19 07:36:37;;;;;;;25.88;4.35;;;8.00;99.90;;;-144.05;79.76;57003.88;5026736;28;20021;-81
2023/11/19 07:39:04;;;;;;;23.50;4.22;;;;;;;-144.05;79.12;56984.78;5022214;28;20022;-81
2023/11/19 07:41:31;;;;;;;22.52;3.92;;;;;;;-144.05;78.44;57014.50;5025472;28;20029;-86
2023/11/19 07:43:58;;;;;;;21.10;3.78;;;;;;;-144.05;78.19;57023.00;5022717;28;20071;-81
2023/11/19 07:46:25;;;;;;;18.90;3.45;;;;;;;-144.05;78.01;57025.13;5025219;28;20048;-80
2023/11/19 07:48:52;;;;;;;28.65;4.25;;;8.10;99.90;;;-144.05;77.76;56989.00;5024891;28;20112;-81
2023/11/19 07:51:18;;;;;;;19.55;4.70;;;;;;;-144.05;77.59;57001.75;5028554;28;20076;-84
2023/11/19 07:53:44;;;;;;;30.10;4.45;;;;;;;-144.05;77.45;57016.63;5041695;28;20084;-83
2023/11/19 07:56:10;;;;;;;25.92;5.35;;;;;;;-144.05;77.75;57020.88;5026285;28;20029;-85
2023/11/19 07:58:37;;;;;;;20.67;3.67;;;;;;;-144.05;76.60;57012.38;5025428;28;20025;-85
2023/11/19 08:01:04;;;;;;;21.52;3.97;;;8.60;99.90;;;-144.05;76.04;57010.25;5022079;28;20487;-80
2023/11/19 08:03:30;;;;;;;25.60;4.50;;;;;;;-144.05;76.37;57003.88;5025127;28;20029;-81
2023/11/19 08:05:57;;;;;;;21.92;3.72;;;8.80;99.90;;;-144.05;76.17;57012.38;5023457;28;20053;-82
2023/11/19 08:08:23;;;;;;;18.13;4.15;;;;;;;-144.05;76.31;57016.63;5023497;28;20069;-81
2023/11/19 08:10:51;;;;;;;20.90;4.13;;;;;;;-144.05;76.13;57016.63;5024054;28;20021;-82
2023/11/19 08:13:18;;;;;;;22.88;4.28;;;;;;;-144.05;75.83;57010.25;5023234;28;20391;-81
2023/11/19 08:15:46;;;;;;;20.25;3.83;;;;;;;-144.05;75.88;57027.25;5023483;28;20021;-82
2023/11/19 08:18:13;;;;;;;25.63;4.82;;;;;;;-144.05;75.99;57001.75;5020114;28;20510;-83
2023/11/19 08:20:39;;;;;;;21.60;3.72;;;;;;;-144.05;75.73;57012.38;5023127;28;20036;-82
2023/11/19 08:23:05;;;;;;;22.58;3.85;;;;;;;-144.05;75.20;57018.75;5025109;28;20038;-80
2023/11/19 08:25:33;;;;;;;24.65;4.18;;;;;;;-144.05;75.43;57018.75;5024116;28;20021;-82
2023/11/19 08:28:00;;;;;;;20.60;3.60;;;;;;;-144.05;75.71;57027.25;5020769;28;20159;-81
2023/11/19 08:30:27;;;;;;;30.90;4.65;;;;;;;-144.05;75.58;56997.50;5020774;28;20038;-82
2023/11/19 08:32:53;;;;;;;29.98;5.32;;;;;;;-144.05;75.18;57025.13;5022675;28;20033;-81
2023/11/19 08:35:19;;;;;;;18.80;4.20;;;;;;;-144.05;75.31;57008.13;5021598;28;20032;-82
2023/11/19 08:37:45;;;;;;;19.92;3.63;;;;;;;-144.05;75.21;57040.00;5023596;28;20024;-83
2023/11/19 08:40:15;;;;;;;18.90;3.95;;;;;;;-144.05;75.28;56982.66;5020661;28;20034;-80
2023/11/19 08:42:41;;;;;;;21.25;4.50;;;;;;;-144.05;75.53;57014.50;5022728;28;20101;-80
2023/11/19 08:45:11;;;;;;;24.75;4.07;;;12.50;99.90;;;-144.05;75.42;56980.53;5020241;28;20018;-81
2023/11/19 08:47:38;;;;;;;23.45;4.00;;;12.50;99.90;;;-144.05;74.99;57020.88;5015786;28;20131;-82
2023/11/19 08:50:05;;;;;;;19.75;3.95;;;;;;;-144.05;75.08;57008.13;5019369;28;20341;-81
2023/11/19 08:52:31;;;;;;;23.90;4.00;;;;;;;-144.05;75.70;57033.63;5021012;28;20123;-82
2023/11/19 08:54:57;;;;;;;27.98;4.20;;;;;;;-144.05;75.55;56991.13;5019994;28;20041;-82
2023/11/19 08:57:23;;;;;;;29.23;4.60;;;;;;;-144.05;75.53;56984.78;5024356;28;20060;-81
2023/11/19 08:59:50;;;;;;;27.55;5.32;;;;;;;-144.05;75.26;56989.00;5020791;28;20022;-82
2023/11/19 09:02:16;;;;;;;27.48;4.20;;;;;;;-144.05;74.80;56997.50;5020243;28;20502;-82
2023/11/19 09:04:42;;;;;;;22.10;4.20;;;;;;;-144.05;73.97;57014.50;5022886;28;20033;-81
2023/11/19 09:07:12;;;;;;;20.23;3.83;;;;;;;-144.05;74.33;57008.13;5019599;28;20026;-82
2023/11/19 09:09:38;;;;;;;30.40;4.78;;;;;;;-144.05;74.06;57008.13;5019460;28;20386;-80
2023/11/19 09:12:05;;;;;;;32.92;4.82;;;;;;;-144.05;74.18;57014.50;5018411;28;20502;-82
2023/11/19 09:14:31;;;;;;;27.70;4.45;;;;;;;-144.05;74.27;56995.38;5024798;28;20454;-80
2023/11/19 09:16:58;;;;;;;27.75;4.38;;;;;;;-144.05;74.41;56999.63;5020344;28;20022;-81
2023/11/19 09:19:26;;;;;;;23.52;4.75;;;;;;;-144.05;74.66;57010.25;5021287;28;20037;-82
2023/11/19 09:21:53;;;;;;;23.33;4.10;;;8.30;99.90;;;-144.05;74.76;57001.75;5021786;28;20467;-80
2023/11/19 09:24:19;;;;;;;25.02;4.75;;;;;;;-144.05;74.27;57014.50;5020761;28;20018;-81
2023/11/19 09:26:45;;;;;;;24.40;4.50;;;;;;;-144.05;74.72;57025.13;5022351;28;20031;-80
2023/11/19 09:29:14;;;;;;;30.83;5.32;;;;;;;-144.05;74.14;57023.00;5019202;28;20052;-80
2023/11/19 09:31:40;;;;;;;21.65;3.92;;;;;;;-144.05;74.45;57027.25;5022510;28;20035;-81
2023/11/19 09:34:07;;;;;;;29.23;4.60;;;;;;;-144.05;74.63;56982.66;5014391;28;20112;-81
2023/11/19 09:36:34;;;;;;;27.40;4.95;;;;;;;-144.05;74.38;56995.38;5019173;28;20029;-79
2023/11/19 09:39:03;;;;;;;29.13;4.90;;;8.70;99.90;;;-144.05;74.22;56997.50;5019645;28;20052;-82
2023/11/19 09:41:32;;;;;;;24.92;5.18;;;12.50;99.90;;;-144.05;74.00;56993.25;5019701;28;20036;-80
2023/11/19 09:43:59;;;;;;;27.63;4.72;;;;;;;-144.05;73.49;57010.25;5018215;28;20396;-82
2023/11/19 09:46:26;;;;;;;25.17;4.95;;;9.40;99.90;;;-144.05;73.38;57018.75;5020145;28;20030;-78
2023/11/19 09:48:59;;;;;;;28.92;5.28;;;8.80;99.90;;;-144.05;72.41;56989.00;5020535;28;20090;-81
2023/11/19 09:51:26;;;;;;;30.85;4.45;;;;;;;-144.05;71.78;56999.63;5027394;28;20033;-81
2023/11/19 09:53:52;;;;;;;24.83;4.10;;;;;;;-144.05;71.33;57006.00;5019115;28;20436;-80
2023/11/19 09:56:19;;;;;;;20.25;4.68;;;13.10;99.90;;;-144.05;71.39;57018.75;5017041;28;20045;-81
2023/11/19 09:58:45;;;;;;;25.13;5.00;;;9.10;99.90;;;-144.05;71.18;56999.63;5036302;28;20088;-81
2023/11/19 10:01:12;;;;;;;26.92;4.68;;;9.00;99.90;;;-144.05;71.00;56984.78;5017129;28;20034;-80
2023/11/19 10:03:40;;;;;;;20.90;4.35;;;;;;;-144.05;70.44;57025.13;5021446;28;20013;-81
2023/11/19 10:06:10;;;;;;;27.23;5.32;;;12.90;99.90;;;-144.05;71.47;57003.88;5018003;28;20038;-79
2023/11/19 10:08:42;;;;;;;22.55;3.70;;;9.20;99.90;;;-144.05;71.24;56989.00;5021141;28;20504;-80
2023/11/19 10:11:10;;;;;;;29.75;5.22;;;;;;;-144.05;70.90;57012.38;5022369;28;20083;-80
2023/11/19 10:13:40;;;;;;;23.83;5.25;;;9.40;99.90;;;-144.05;71.08;56969.91;5021905;28;20112;-79
2023/11/19 10:16:13;;;;;;;32.10;6.07;;;13.30;99.90;;;-144.05;69.72;56997.50;5030820;28;20420;-81
2023/11/19 10:18:47;;;;;;;27.13;3.65;;;13.60;99.90;;;-144.05;68.14;56993.25;5020630;28;20418;-81
2023/11/19 10:21:16;;;;;;;26.00;4.25;;;;;;;-144.05;68.08;56999.63;5017991;28;20399;-83
2023/11/19 10:23:59;;;;;;;21.00;3.85;;;13.90;99.90;;;-144.05;67.59;56989.00;5014591;28;20391;-80
2023/11/19 10:26:27;;;;;;;26.52;3.83;;;;;;;-144.05;67.42;57003.88;5027081;28;20046;-81
2023/11/19 10:28:53;;;;;;;20.73;3.75;;;;;;;-144.05;67.87;57012.38;5019698;28;20029;-80
2023/11/19 10:31:24;;;;;;;22.73;4.68;;;13.20;99.90;;;-144.05;68.34;56997.50;5016862;28;20030;-81
2023/11/19 10:33:52;;;;;;;24.10;3.83;;;9.50;99.90;;;-144.05;68.79;56989.00;5019894;28;20445;-82
2023/11/19 10:36:19;;;;;;;21.05;5.40;;;;;;;-144.05;69.28;56986.91;5026066;28;20099;-80
2023/11/19 10:38:56;;;;;;;21.63;4.45;;;13.30;99.90;;;-144.05;69.26;56993.25;5020611;28;20033;-81
2023/11/19 10:41:31;;;;;;;25.95;4.97;;;13.20;99.90;;;-144.05;69.08;56984.78;5018311;28;20029;-80
2023/11/19 10:43:59;;;;;;;18.80;4.03;;;;;;;-144.05;68.98;56991.13;5017191;28;20103;-82
2023/11/19 10:46:39;;;;;;;25.58;4.82;;;13.10;99.90;;;-144.05;69.60;57020.88;5018364;28;20029;-79
2023/11/19 10:49:07;;;;;;;31.77;5.22;;;;;;;-144.05;69.67;56982.66;5017402;28;20104;-81
2023/11/19 10:51:34;;;;;;;22.98;4.50;;;;;;;-144.05;69.28;57006.00;5022775;28;20041;-81
2023/11/19 10:54:06;;;;;;;28.75;4.50;;;9.80;99.90;;;-144.05;68.81;57001.75;5018016;28;20101;-81
2023/11/19 10:56:34;;;;;;;27.40;5.30;;;13.30;99.90;;;-144.05;67.88;56993.25;5019146;28;20026;-80
2023/11/19 10:59:02;;;;;;;24.75;4.68;;;9.30;99.90;;;-144.05;68.28;57003.88;5033021;28;20101;-80